createdAt,value
2023-01-12T00:00:23.489Z,15
2023-01-12T00:01:23.506Z,14
2023-01-12T00:02:23.545Z,19
2023-01-12T00:03:23.439Z,14
2023-01-12T00:04:23.478Z,9
2023-01-12T00:05:23.451Z,12
2023-01-12T00:06:23.442Z,11
2023-01-12T00:07:23.441Z,8
2023-01-12T00:08:23.442Z,20
2023-01-12T00:09:23.460Z,10
2023-01-12T00:10:23.448Z,15
2023-01-12T00:11:23.458Z,9
2023-01-12T00:12:23.442Z,13
2023-01-12T00:13:23.441Z,9
2023-01-12T00:14:23.616Z,13
2023-01-12T00:15:24.388Z,17
2023-01-12T00:16:26.025Z,12
2023-01-12T00:17:23.444Z,11
2023-01-12T00:18:23.450Z,10
2023-01-12T00:19:24.107Z,7
2023-01-12T00:20:23.449Z,7
2023-01-12T00:21:23.446Z,8
2023-01-12T00:22:23.441Z,9
2023-01-12T00:23:23.536Z,11
2023-01-12T00:24:23.455Z,7
2023-01-12T00:25:23.444Z,10
2023-01-12T00:26:23.467Z,18
2023-01-12T00:27:23.440Z,27
2023-01-12T00:28:23.456Z,9
2023-01-12T00:29:23.455Z,14
2023-01-12T00:30:23.449Z,9
2023-01-12T00:31:23.469Z,16
2023-01-12T00:32:23.442Z,10
2023-01-12T00:33:23.445Z,10
2023-01-12T00:34:23.440Z,11
2023-01-12T00:36:23.438Z,11
2023-01-12T00:37:23.481Z,12
2023-01-12T00:38:23.478Z,10
2023-01-12T00:39:23.459Z,12
2023-01-12T00:40:23.439Z,9
2023-01-12T00:41:23.433Z,13
2023-01-12T00:42:23.431Z,10
2023-01-12T00:43:23.481Z,10
2023-01-12T00:44:23.470Z,10
2023-01-12T00:45:23.468Z,11
2023-01-12T00:46:23.466Z,8
2023-01-12T00:47:23.430Z,8
2023-01-12T00:48:23.442Z,15
2023-01-12T00:49:23.435Z,9
2023-01-12T00:50:23.460Z,13
2023-01-12T00:52:30.837Z,9
2023-01-12T00:53:23.445Z,14
2023-01-12T00:54:23.442Z,14
2023-01-12T00:55:23.498Z,8
2023-01-12T00:56:23.432Z,13
2023-01-12T00:57:23.461Z,11
2023-01-12T00:58:23.437Z,10
2023-01-12T00:59:23.446Z,12
2023-01-12T01:00:23.450Z,16
2023-01-12T01:01:23.617Z,9
2023-01-12T01:02:23.578Z,10
2023-01-12T01:03:23.441Z,16
2023-01-12T01:04:23.468Z,10
2023-01-12T01:05:23.432Z,11
2023-01-12T01:07:23.452Z,9
2023-01-12T01:08:23.457Z,9
2023-01-12T01:09:23.433Z,15
2023-01-12T01:10:23.433Z,9
2023-01-12T01:11:23.579Z,6
2023-01-12T01:12:23.443Z,10
2023-01-12T01:13:23.441Z,8
2023-01-12T01:14:23.427Z,10
2023-01-12T01:15:23.428Z,6
2023-01-12T01:16:23.424Z,8
2023-01-12T01:17:23.442Z,7
2023-01-12T01:18:23.433Z,15
2023-01-12T01:19:23.440Z,16
2023-01-12T01:20:23.437Z,10
2023-01-12T01:21:23.436Z,7
2023-01-12T01:22:23.434Z,9
2023-01-12T01:23:23.431Z,8
2023-01-12T01:24:23.435Z,11
2023-01-12T01:25:23.430Z,7
2023-01-12T01:26:23.452Z,14
2023-01-12T01:27:23.439Z,10
2023-01-12T01:28:23.463Z,11
2023-01-12T01:29:23.448Z,8
2023-01-12T01:30:23.443Z,11
2023-01-12T01:31:23.700Z,12
2023-01-12T01:32:23.439Z,13
2023-01-12T01:33:23.436Z,8
2023-01-12T01:34:23.430Z,10
2023-01-12T01:35:23.429Z,12
2023-01-12T01:37:23.424Z,19
2023-01-12T01:38:23.450Z,7
2023-01-12T01:39:23.449Z,11
2023-01-12T01:40:23.438Z,10
2023-01-12T01:41:23.439Z,10
2023-01-12T01:42:23.446Z,10
2023-01-12T01:43:23.436Z,13
2023-01-12T01:44:23.434Z,7
2023-01-12T01:45:23.433Z,13
2023-01-12T01:46:23.483Z,10
2023-01-12T01:47:23.437Z,14
2023-01-12T01:48:23.435Z,12
2023-01-12T01:49:23.424Z,15
2023-01-12T01:50:23.438Z,13
2023-01-12T01:51:23.427Z,20
2023-01-12T01:52:23.431Z,20
2023-01-12T01:53:23.425Z,13
2023-01-12T01:55:23.445Z,12
2023-01-12T01:57:23.426Z,10
2023-01-12T01:58:23.430Z,12
2023-01-12T01:59:23.480Z,10
2023-01-12T02:00:23.429Z,11
2023-01-12T02:01:23.596Z,15
2023-01-12T02:03:23.422Z,9
2023-01-12T02:04:23.436Z,13
2023-01-12T02:05:23.424Z,12
2023-01-12T02:06:23.729Z,11
2023-01-12T02:07:23.435Z,9
2023-01-12T02:10:23.426Z,13
2023-01-12T02:11:23.427Z,11
2023-01-12T02:12:23.418Z,9
2023-01-12T02:13:23.430Z,12
2023-01-12T02:14:23.430Z,13
2023-01-12T02:15:23.424Z,17
2023-01-12T02:16:23.586Z,9
2023-01-12T02:18:23.433Z,20
2023-01-12T02:19:23.420Z,13
2023-01-12T02:20:23.424Z,13
2023-01-12T02:21:23.440Z,9
2023-01-12T02:22:23.428Z,13
2023-01-12T02:23:23.429Z,17
2023-01-12T02:24:23.414Z,9
2023-01-12T02:25:23.430Z,10
2023-01-12T02:26:23.419Z,7
2023-01-12T02:27:23.431Z,14
2023-01-12T02:28:23.421Z,11
2023-01-12T02:29:23.427Z,7
2023-01-12T02:30:23.451Z,19
2023-01-12T02:31:23.617Z,14
2023-01-12T02:32:23.441Z,14
2023-01-12T02:33:23.421Z,14
2023-01-12T02:35:23.420Z,15
2023-01-12T02:36:23.424Z,8
2023-01-12T02:37:23.431Z,19
2023-01-12T02:38:23.439Z,16
2023-01-12T02:39:23.418Z,14
2023-01-12T02:40:23.416Z,15
2023-01-12T02:41:23.430Z,13
2023-01-12T02:42:23.446Z,17
2023-01-12T02:43:23.418Z,12
2023-01-12T02:44:23.412Z,12
2023-01-12T02:45:23.498Z,11
2023-01-12T02:46:23.468Z,13
2023-01-12T02:47:23.417Z,10
2023-01-12T02:48:23.422Z,11
2023-01-12T02:49:23.431Z,9
2023-01-12T02:50:23.425Z,14
2023-01-12T02:51:23.426Z,15
2023-01-12T02:52:23.416Z,19
2023-01-12T02:53:23.419Z,11
2023-01-12T02:54:23.419Z,10
2023-01-12T02:55:23.422Z,6
2023-01-12T02:56:23.416Z,15
2023-01-12T02:57:23.415Z,15
2023-01-12T02:58:23.432Z,15
2023-01-12T02:59:23.427Z,15
2023-01-12T03:00:23.510Z,14
2023-01-12T03:01:23.677Z,13
2023-01-12T03:02:23.431Z,15
2023-01-12T03:03:23.540Z,12
2023-01-12T03:04:23.413Z,16
2023-01-12T03:05:23.414Z,16
2023-01-12T03:06:23.410Z,13
2023-01-12T03:07:23.419Z,13
2023-01-12T03:08:23.450Z,15
2023-01-12T03:09:23.416Z,19
2023-01-12T03:10:23.478Z,9
2023-01-12T03:11:23.419Z,12
2023-01-12T03:12:23.416Z,15
2023-01-12T03:13:23.427Z,19
2023-01-12T03:14:23.413Z,9
2023-01-12T03:15:23.421Z,9
2023-01-12T03:16:23.429Z,11
2023-01-12T03:17:23.412Z,17
2023-01-12T03:18:23.416Z,15
2023-01-12T03:19:23.418Z,14
2023-01-12T03:20:23.428Z,18
2023-01-12T03:21:23.420Z,15
2023-01-12T03:22:23.415Z,10
2023-01-12T03:23:23.424Z,14
2023-01-12T03:24:23.423Z,13
2023-01-12T03:25:23.420Z,13
2023-01-12T03:26:23.410Z,10
2023-01-12T03:27:23.438Z,19
2023-01-12T03:28:23.417Z,15
2023-01-12T03:29:23.417Z,12
2023-01-12T03:30:23.429Z,13
2023-01-12T03:31:23.429Z,8
2023-01-12T03:32:23.443Z,9
2023-01-12T03:33:23.410Z,18
2023-01-12T03:34:23.423Z,10
2023-01-12T03:35:23.471Z,12
2023-01-12T03:36:23.417Z,14
2023-01-12T03:37:23.408Z,12
2023-01-12T03:38:23.409Z,18
2023-01-12T03:39:23.406Z,21
2023-01-12T03:40:23.408Z,13
2023-01-12T03:41:23.422Z,13
2023-01-12T03:42:23.411Z,11
2023-01-12T03:43:23.449Z,12
2023-01-12T03:44:23.424Z,15
2023-01-12T03:45:23.410Z,15
2023-01-12T03:46:23.490Z,12
2023-01-12T03:47:23.407Z,16
2023-01-12T03:48:23.426Z,12
2023-01-12T03:49:23.427Z,14
2023-01-12T03:50:23.422Z,15
2023-01-12T03:51:23.410Z,15
2023-01-12T03:53:23.423Z,16
2023-01-12T03:54:23.411Z,10
2023-01-12T03:55:23.409Z,11
2023-01-12T03:56:23.408Z,8
2023-01-12T03:57:23.442Z,9
2023-01-12T03:58:23.409Z,12
2023-01-12T03:59:23.420Z,9
2023-01-12T04:01:23.613Z,8
2023-01-12T04:02:23.508Z,11
2023-01-12T04:03:23.487Z,9
2023-01-12T04:04:23.406Z,12
2023-01-12T04:05:23.403Z,11
2023-01-12T04:06:23.421Z,12
2023-01-12T04:07:23.425Z,12
2023-01-12T04:08:23.425Z,13
2023-01-12T04:09:23.431Z,14
2023-01-12T04:10:23.407Z,8
2023-01-12T04:11:23.411Z,14
2023-01-12T04:12:23.416Z,6
2023-01-12T04:14:23.415Z,9
2023-01-12T04:15:23.402Z,10
2023-01-12T04:16:23.518Z,6
2023-01-12T04:17:23.400Z,8
2023-01-12T04:18:23.402Z,9
2023-01-12T04:19:23.413Z,10
2023-01-12T04:20:23.406Z,10
2023-01-12T04:21:23.414Z,10
2023-01-12T04:22:23.424Z,9
2023-01-12T04:23:23.408Z,7
2023-01-12T04:24:23.402Z,13
2023-01-12T04:25:23.407Z,14
2023-01-12T04:26:23.429Z,6
2023-01-12T04:27:23.440Z,13
2023-01-12T04:28:23.408Z,7
2023-01-12T04:29:23.411Z,9
2023-01-12T04:30:23.402Z,5
2023-01-12T04:31:23.466Z,10
2023-01-12T04:32:23.409Z,12
2023-01-12T04:33:23.417Z,7
2023-01-12T04:35:23.412Z,8
2023-01-12T04:36:23.407Z,6
2023-01-12T04:37:23.405Z,8
2023-01-12T04:38:23.400Z,8
2023-01-12T04:39:23.483Z,8
2023-01-12T04:40:23.414Z,7
2023-01-12T04:41:23.403Z,10
2023-01-12T04:42:23.408Z,14
2023-01-12T04:43:23.398Z,8
2023-01-12T04:44:23.404Z,9
2023-01-12T04:45:23.419Z,11
2023-01-12T04:46:23.401Z,7
2023-01-12T04:47:23.402Z,7
2023-01-12T04:48:25.181Z,9
2023-01-12T04:49:23.402Z,11
2023-01-12T04:51:23.453Z,8
2023-01-12T04:52:23.417Z,14
2023-01-12T04:53:23.450Z,10
2023-01-12T04:54:23.408Z,13
2023-01-12T04:56:23.428Z,11
2023-01-12T04:57:23.841Z,10
2023-01-12T04:58:23.397Z,8
2023-01-12T04:59:23.401Z,13
2023-01-12T05:00:23.411Z,8
2023-01-12T05:01:23.604Z,8
2023-01-12T05:02:23.399Z,10
2023-01-12T05:03:23.404Z,7
2023-01-12T05:04:23.480Z,13
2023-01-12T05:05:23.431Z,8
2023-01-12T05:06:23.400Z,9
2023-01-12T05:07:23.408Z,4
2023-01-12T05:08:23.395Z,10
2023-01-12T05:09:23.391Z,10
2023-01-12T05:10:23.423Z,7
2023-01-12T05:11:23.401Z,6
2023-01-12T05:12:23.409Z,5
2023-01-12T05:13:23.404Z,11
2023-01-12T05:14:23.403Z,8
2023-01-12T05:15:23.397Z,11
2023-01-12T05:16:23.505Z,7
2023-01-12T05:17:23.398Z,10
2023-01-12T05:18:23.398Z,10
2023-01-12T05:19:23.427Z,13
2023-01-12T05:20:23.397Z,10
2023-01-12T05:21:23.401Z,8
2023-01-12T05:22:23.398Z,10
2023-01-12T05:23:23.398Z,9
2023-01-12T05:24:23.401Z,10
2023-01-12T05:25:23.404Z,10
2023-01-12T05:26:23.395Z,7
2023-01-12T05:27:23.405Z,6
2023-01-12T05:28:23.407Z,7
2023-01-12T05:29:23.402Z,10
2023-01-12T05:31:23.406Z,5
2023-01-12T05:32:23.394Z,4
2023-01-12T05:33:23.411Z,3
2023-01-12T05:34:23.388Z,7
2023-01-12T05:35:23.409Z,7
2023-01-12T05:36:25.710Z,8
2023-01-12T05:37:23.399Z,9
2023-01-12T05:38:23.425Z,6
2023-01-12T05:39:23.393Z,13
2023-01-12T05:40:23.396Z,6
2023-01-12T05:41:23.393Z,17
2023-01-12T05:43:23.392Z,8
2023-01-12T05:44:23.395Z,5
2023-01-12T05:45:23.409Z,6
2023-01-12T05:47:23.407Z,5
2023-01-12T05:48:23.387Z,11
2023-01-12T05:49:23.389Z,7
2023-01-12T05:50:23.396Z,8
2023-01-12T05:51:23.391Z,7
2023-01-12T05:52:23.391Z,7
2023-01-12T05:53:23.407Z,5
2023-01-12T05:54:23.394Z,7
2023-01-12T05:55:23.392Z,7
2023-01-12T05:56:23.385Z,7
2023-01-12T05:57:23.403Z,3
2023-01-12T05:58:23.396Z,5
2023-01-12T05:59:23.383Z,5
2023-01-12T06:00:23.411Z,9
2023-01-12T06:01:23.480Z,5
2023-01-12T06:02:23.472Z,4
2023-01-12T06:03:23.857Z,4
2023-01-12T06:04:23.421Z,7
2023-01-12T06:05:23.424Z,12
2023-01-12T06:06:23.406Z,2
2023-01-12T06:08:23.381Z,5
2023-01-12T06:09:23.394Z,8
2023-01-12T06:10:23.391Z,7
2023-01-12T06:11:23.391Z,5
2023-01-12T06:12:23.379Z,4
2023-01-12T06:13:23.388Z,9
2023-01-12T06:14:23.394Z,5
2023-01-12T06:15:23.391Z,8
2023-01-12T06:16:23.396Z,7
2023-01-12T06:17:23.388Z,6
2023-01-12T06:18:23.398Z,4
2023-01-12T06:19:23.391Z,6
2023-01-12T06:20:23.386Z,8
2023-01-12T06:21:23.395Z,7
2023-01-12T06:22:23.390Z,4
2023-01-12T06:23:23.380Z,7
2023-01-12T06:25:23.381Z,5
2023-01-12T06:26:23.387Z,4
2023-01-12T06:27:23.387Z,8
2023-01-12T06:28:23.393Z,6
2023-01-12T06:29:23.387Z,3
2023-01-12T06:30:23.414Z,7
2023-01-12T06:31:23.459Z,6
2023-01-12T06:33:23.385Z,6
2023-01-12T06:34:23.394Z,2
2023-01-12T06:35:23.373Z,4
2023-01-12T06:36:23.379Z,6
2023-01-12T06:37:23.412Z,8
2023-01-12T06:38:23.451Z,8
2023-01-12T06:39:23.381Z,11
2023-01-12T06:40:23.384Z,6
2023-01-12T06:41:23.397Z,5
2023-01-12T06:42:23.403Z,9
2023-01-12T06:43:23.387Z,5
2023-01-12T06:44:23.379Z,6
2023-01-12T06:45:23.387Z,4
2023-01-12T06:46:23.424Z,5
2023-01-12T06:48:23.390Z,7
2023-01-12T06:49:23.393Z,9
2023-01-12T06:50:23.374Z,6
2023-01-12T06:51:23.394Z,5
2023-01-12T06:52:23.393Z,10
2023-01-12T06:53:23.377Z,10
2023-01-12T06:54:23.400Z,13
2023-01-12T06:55:23.385Z,6
2023-01-12T06:56:23.399Z,6
2023-01-12T06:58:23.373Z,11
2023-01-12T06:59:23.373Z,6
2023-01-12T07:00:23.386Z,5
2023-01-12T07:01:23.576Z,6
2023-01-12T07:02:23.390Z,6
2023-01-12T07:03:23.381Z,7
2023-01-12T07:04:23.467Z,7
2023-01-12T07:05:23.375Z,6
2023-01-12T07:06:23.516Z,11
2023-01-12T07:07:23.370Z,7
2023-01-12T07:08:23.384Z,4
2023-01-12T07:09:23.412Z,12
2023-01-12T07:10:23.378Z,5
2023-01-12T07:11:23.388Z,7
2023-01-12T07:12:23.385Z,8
2023-01-12T07:13:23.395Z,15
2023-01-12T07:14:23.394Z,9
2023-01-12T07:15:23.386Z,3
2023-01-12T07:16:23.583Z,14
2023-01-12T07:17:23.437Z,8
2023-01-12T07:18:23.377Z,7
2023-01-12T07:19:23.390Z,7
2023-01-12T07:20:23.397Z,9
2023-01-12T07:21:23.387Z,8
2023-01-12T07:23:23.391Z,4
2023-01-12T07:24:23.371Z,3
2023-01-12T07:25:23.375Z,6
2023-01-12T07:26:23.370Z,8
2023-01-12T07:27:23.372Z,5
2023-01-12T07:28:23.383Z,9
2023-01-12T07:29:23.384Z,9
2023-01-12T07:30:23.374Z,10
2023-01-12T07:31:23.440Z,8
2023-01-12T07:32:23.379Z,12
2023-01-12T07:33:23.374Z,13
2023-01-12T07:34:23.378Z,3
2023-01-12T07:35:23.392Z,10
2023-01-12T07:36:23.385Z,6
2023-01-12T07:37:23.374Z,5
2023-01-12T07:38:23.376Z,6
2023-01-12T07:40:23.409Z,8
2023-01-12T07:41:23.377Z,8
2023-01-12T07:42:23.387Z,9
2023-01-12T07:43:23.406Z,9
2023-01-12T07:44:23.372Z,7
2023-01-12T07:45:23.377Z,9
2023-01-12T07:46:23.413Z,4
2023-01-12T07:47:23.378Z,7
2023-01-12T07:48:23.408Z,7
2023-01-12T07:49:23.367Z,6
2023-01-12T07:50:23.373Z,8
2023-01-12T07:51:23.383Z,11
2023-01-12T07:52:23.370Z,6
2023-01-12T07:54:23.374Z,8
2023-01-12T07:55:23.415Z,10
2023-01-12T07:56:23.396Z,10
2023-01-12T07:57:23.374Z,10
2023-01-12T07:58:23.366Z,8
2023-01-12T07:59:23.370Z,12
2023-01-12T08:02:23.401Z,9
2023-01-12T08:03:23.377Z,10
2023-01-12T08:04:23.374Z,12
2023-01-12T08:05:23.452Z,5
2023-01-12T08:06:23.367Z,9
2023-01-12T08:07:23.369Z,8
2023-01-12T08:08:23.369Z,6
2023-01-12T08:09:23.364Z,6
2023-01-12T08:10:23.373Z,5
2023-01-12T08:11:23.404Z,5
2023-01-12T08:12:23.376Z,4
2023-01-12T08:13:23.383Z,5
2023-01-12T08:14:23.377Z,5
2023-01-12T08:15:23.387Z,5
2023-01-12T08:16:23.491Z,4
2023-01-12T08:17:23.387Z,5
2023-01-12T08:18:23.384Z,7
2023-01-12T08:19:23.365Z,6
2023-01-12T08:20:23.368Z,2
2023-01-12T08:21:23.363Z,5
2023-01-12T08:22:23.367Z,7
2023-01-12T08:23:23.438Z,9
2023-01-12T08:24:23.362Z,7
2023-01-12T08:25:23.556Z,4
2023-01-12T08:26:23.371Z,4
2023-01-12T08:27:23.366Z,7
2023-01-12T08:28:23.363Z,6
2023-01-12T08:29:23.368Z,4
2023-01-12T08:30:23.386Z,7
2023-01-12T08:31:23.372Z,6
2023-01-12T08:32:23.377Z,5
2023-01-12T08:33:23.365Z,5
2023-01-12T08:34:23.366Z,7
2023-01-12T08:35:23.390Z,5
2023-01-12T08:37:23.391Z,4
2023-01-12T08:38:23.525Z,1
2023-01-12T08:39:23.374Z,12
2023-01-12T08:40:23.404Z,3
2023-01-12T08:41:23.360Z,5
2023-01-12T08:42:24.666Z,3
2023-01-12T08:43:23.375Z,7
2023-01-12T08:44:23.362Z,9
2023-01-12T08:45:23.366Z,7
2023-01-12T08:46:23.439Z,6
2023-01-12T08:47:23.379Z,5
2023-01-12T08:49:24.415Z,4
2023-01-12T08:50:23.381Z,5
2023-01-12T08:51:23.368Z,7
2023-01-12T08:52:23.368Z,6
2023-01-12T08:53:23.364Z,4
2023-01-12T08:54:23.372Z,11
2023-01-12T08:55:23.374Z,7
2023-01-12T08:56:23.361Z,5
2023-01-12T08:57:23.378Z,6
2023-01-12T08:58:23.357Z,2
2023-01-12T09:00:23.361Z,3
2023-01-12T09:01:23.513Z,3
2023-01-12T09:02:23.459Z,5
2023-01-12T09:03:23.360Z,7
2023-01-12T09:04:23.368Z,4
2023-01-12T09:05:23.363Z,4
2023-01-12T09:06:23.372Z,3
2023-01-12T09:07:23.381Z,3
2023-01-12T09:08:23.367Z,1
2023-01-12T09:10:23.691Z,3
2023-01-12T09:12:24.543Z,6
2023-01-12T09:13:23.395Z,4
2023-01-12T09:14:23.367Z,5
2023-01-12T09:15:23.354Z,2
2023-01-12T09:16:23.417Z,2
2023-01-12T09:17:23.358Z,2
2023-01-12T09:18:23.385Z,5
2023-01-12T09:19:23.441Z,6
2023-01-12T09:20:23.433Z,3
2023-01-12T09:21:23.359Z,4
2023-01-12T09:22:23.359Z,4
2023-01-12T09:23:23.358Z,3
2023-01-12T09:24:23.355Z,3
2023-01-12T09:25:23.362Z,3
2023-01-12T09:26:23.355Z,7
2023-01-12T09:27:23.361Z,3
2023-01-12T09:28:23.360Z,3
2023-01-12T09:29:23.356Z,3
2023-01-12T09:30:23.376Z,2
2023-01-12T09:31:23.513Z,2
2023-01-12T09:32:29.238Z,3
2023-01-12T09:33:24.102Z,3
2023-01-12T09:35:23.358Z,2
2023-01-12T09:36:23.369Z,3
2023-01-12T09:37:23.429Z,4
2023-01-12T09:38:23.358Z,3
2023-01-12T09:39:27.856Z,4
2023-01-12T09:40:23.499Z,4
2023-01-12T09:41:23.364Z,4
2023-01-12T09:43:23.360Z,4
2023-01-12T09:45:23.359Z,4
2023-01-12T09:46:23.353Z,3
2023-01-12T09:47:23.358Z,4
2023-01-12T09:48:23.359Z,1
2023-01-12T09:49:23.364Z,4
2023-01-12T09:50:23.450Z,13
2023-01-12T09:51:23.370Z,3
2023-01-12T09:52:23.357Z,4
2023-01-12T09:53:23.352Z,3
2023-01-12T09:54:23.369Z,4
2023-01-12T09:55:23.356Z,6
2023-01-12T09:56:23.363Z,3
2023-01-12T09:57:29.010Z,9
2023-01-12T09:58:23.360Z,4
2023-01-12T09:59:23.354Z,2
2023-01-12T10:00:23.465Z,4
2023-01-12T10:01:29.156Z,6
2023-01-12T10:02:23.425Z,4
2023-01-12T10:03:23.388Z,4
2023-01-12T10:04:23.358Z,3
2023-01-12T10:05:26.089Z,6
2023-01-12T10:06:23.351Z,4
2023-01-12T10:07:23.355Z,4
2023-01-12T10:08:23.362Z,3
2023-01-12T10:09:23.348Z,4
2023-01-12T10:10:23.356Z,2
2023-01-12T10:11:23.378Z,1
2023-01-12T10:12:23.352Z,5
2023-01-12T10:13:23.352Z,3
2023-01-12T10:14:23.359Z,3
2023-01-12T10:15:23.584Z,4
2023-01-12T10:16:23.408Z,1
2023-01-12T10:17:23.358Z,5
2023-01-12T10:18:23.355Z,3
2023-01-12T10:19:23.359Z,2
2023-01-12T10:20:23.406Z,5
2023-01-12T10:21:23.356Z,4
2023-01-12T10:22:23.350Z,2
2023-01-12T10:23:23.361Z,3
2023-01-12T10:25:23.373Z,2
2023-01-12T10:26:23.355Z,2
2023-01-12T10:27:23.397Z,3
2023-01-12T10:28:23.663Z,5
2023-01-12T10:30:23.359Z,4
2023-01-12T10:31:23.418Z,2
2023-01-12T10:32:24.661Z,6
2023-01-12T10:33:23.350Z,3
2023-01-12T10:34:23.344Z,3
2023-01-12T10:35:23.348Z,3
2023-01-12T10:36:23.348Z,4
2023-01-12T10:37:23.351Z,4
2023-01-12T10:38:23.345Z,3
2023-01-12T10:39:23.347Z,7
2023-01-12T10:40:23.348Z,3
2023-01-12T10:41:23.398Z,1
2023-01-12T10:42:23.357Z,2
2023-01-12T10:43:23.355Z,5
2023-01-12T10:44:23.346Z,1
2023-01-12T10:45:23.356Z,6
2023-01-12T10:46:23.378Z,3
2023-01-12T10:47:23.367Z,3
2023-01-12T10:48:23.358Z,4
2023-01-12T10:50:23.379Z,4
2023-01-12T10:51:23.476Z,2
2023-01-12T10:52:23.349Z,13
2023-01-12T10:53:23.346Z,5
2023-01-12T10:54:23.348Z,6
2023-01-12T10:55:23.343Z,3
2023-01-12T10:56:23.351Z,6
2023-01-12T10:57:23.360Z,3
2023-01-12T10:58:23.351Z,4
2023-01-12T10:59:23.364Z,7
2023-01-12T11:00:26.048Z,2
2023-01-12T11:01:23.525Z,2
2023-01-12T11:02:23.510Z,3
2023-01-12T11:03:23.345Z,5
2023-01-12T11:04:23.361Z,3
2023-01-12T11:05:23.414Z,4
2023-01-12T11:06:23.354Z,3
2023-01-12T11:07:23.514Z,3
2023-01-12T11:08:23.364Z,3
2023-01-12T11:09:23.354Z,2
2023-01-12T11:10:23.363Z,3
2023-01-12T11:11:23.351Z,4
2023-01-12T11:12:23.356Z,3
2023-01-12T11:13:23.344Z,4
2023-01-12T11:14:24.403Z,5
2023-01-12T11:15:23.355Z,3
2023-01-12T11:16:23.388Z,4
2023-01-12T11:17:23.392Z,2
2023-01-12T11:18:23.349Z,5
2023-01-12T11:19:23.345Z,4
2023-01-12T11:20:23.346Z,2
2023-01-12T11:21:23.359Z,4
2023-01-12T11:22:23.350Z,2
2023-01-12T11:23:23.377Z,3
2023-01-12T11:25:23.359Z,4
2023-01-12T11:26:23.343Z,2
2023-01-12T11:27:23.354Z,5
2023-01-12T11:28:23.369Z,2
2023-01-12T11:29:23.435Z,2
2023-01-12T11:30:23.340Z,4
2023-01-12T11:31:23.348Z,2
2023-01-12T11:32:23.349Z,4
2023-01-12T11:33:23.384Z,2
2023-01-12T11:35:23.369Z,5
2023-01-12T11:36:23.362Z,4
2023-01-12T11:37:23.361Z,2
2023-01-12T11:39:23.347Z,2
2023-01-12T11:40:23.355Z,4
2023-01-12T11:41:23.349Z,2
2023-01-12T11:42:23.350Z,3
2023-01-12T11:43:23.334Z,2
2023-01-12T11:44:23.343Z,2
2023-01-12T11:45:23.336Z,2
2023-01-12T11:46:23.485Z,3
2023-01-12T11:47:23.351Z,6
2023-01-12T11:48:23.354Z,3
2023-01-12T11:49:23.347Z,3
2023-01-12T11:50:23.370Z,3
2023-01-12T11:51:23.354Z,2
2023-01-12T11:52:23.358Z,3
2023-01-12T11:53:23.371Z,4
2023-01-12T11:54:23.347Z,2
2023-01-12T11:55:23.345Z,2
2023-01-12T11:56:23.348Z,3
2023-01-12T11:57:23.339Z,7
2023-01-12T11:59:23.353Z,2
2023-01-12T12:00:23.362Z,2
2023-01-12T12:01:23.372Z,5
2023-01-12T12:02:23.420Z,4
2023-01-12T12:03:23.474Z,3
2023-01-12T12:07:23.347Z,5
2023-01-12T12:08:23.347Z,3
2023-01-12T12:09:23.334Z,4
2023-01-12T12:10:23.350Z,4
2023-01-12T12:11:23.343Z,2
2023-01-12T12:12:23.355Z,2
2023-01-12T12:13:23.352Z,3
2023-01-12T12:14:23.349Z,3
2023-01-12T12:15:23.358Z,4
2023-01-12T12:16:23.367Z,2
2023-01-12T12:17:23.350Z,5
2023-01-12T12:18:23.348Z,3
2023-01-12T12:21:23.349Z,2
2023-01-12T12:22:23.425Z,3
2023-01-12T12:23:23.357Z,5
2023-01-12T12:24:23.339Z,3
2023-01-12T12:25:23.364Z,4
2023-01-12T12:26:23.347Z,3
2023-01-12T12:27:23.336Z,2
2023-01-12T12:28:23.873Z,1
2023-01-12T12:29:23.347Z,4
2023-01-12T12:30:23.341Z,5
2023-01-12T12:31:23.447Z,4
2023-01-12T12:32:23.364Z,2
2023-01-12T12:33:23.347Z,4
2023-01-12T12:34:23.335Z,4
2023-01-12T12:35:23.354Z,4
2023-01-12T12:36:23.350Z,3
2023-01-12T12:37:23.340Z,2
2023-01-12T12:38:23.345Z,3
2023-01-12T12:39:23.343Z,3
2023-01-12T12:41:23.357Z,5
2023-01-12T12:42:23.336Z,4
2023-01-12T12:43:23.349Z,3
2023-01-12T12:44:23.352Z,7
2023-01-12T12:45:23.358Z,4
2023-01-12T12:46:23.393Z,6
2023-01-12T12:47:23.339Z,2
2023-01-12T12:48:23.356Z,2
2023-01-12T12:49:23.342Z,2
2023-01-12T12:50:23.343Z,2
2023-01-12T12:51:23.372Z,3
2023-01-12T12:52:23.348Z,3
2023-01-12T12:54:23.350Z,8
2023-01-12T12:55:23.340Z,5
2023-01-12T12:57:23.457Z,3
2023-01-12T12:58:23.376Z,6
2023-01-12T12:59:23.334Z,3
2023-01-12T13:00:23.469Z,4
2023-01-12T13:01:23.615Z,4
2023-01-12T13:02:23.596Z,6
2023-01-12T13:03:23.351Z,5
2023-01-12T13:04:23.444Z,1
2023-01-12T13:05:24.587Z,4
2023-01-12T13:07:23.327Z,5
2023-01-12T13:08:23.348Z,4
2023-01-12T13:09:23.362Z,9
2023-01-12T13:10:23.347Z,7
2023-01-12T13:11:23.393Z,3
2023-01-12T13:13:23.345Z,4
2023-01-12T13:14:23.335Z,2
2023-01-12T13:15:23.344Z,5
2023-01-12T13:16:23.338Z,2
2023-01-12T13:17:23.338Z,2
2023-01-12T13:18:23.339Z,3
2023-01-12T13:19:23.329Z,4
2023-01-12T13:20:25.930Z,2
2023-01-12T13:21:23.334Z,4
2023-01-12T13:22:23.364Z,3
2023-01-12T13:23:23.354Z,4
2023-01-12T13:24:23.328Z,2
2023-01-12T13:25:23.333Z,2
2023-01-12T13:26:23.398Z,2
2023-01-12T13:27:23.338Z,3
2023-01-12T13:29:23.359Z,3
2023-01-12T13:30:23.337Z,4
2023-01-12T13:31:23.426Z,6
2023-01-12T13:32:23.358Z,2
2023-01-12T13:33:23.361Z,3
2023-01-12T13:34:23.348Z,3
2023-01-12T13:35:23.347Z,4
2023-01-12T13:36:23.332Z,2
2023-01-12T13:37:23.329Z,2
2023-01-12T13:38:23.338Z,2
2023-01-12T13:39:23.336Z,4
2023-01-12T13:40:23.335Z,3
2023-01-12T13:41:23.340Z,6
2023-01-12T13:42:23.345Z,4
2023-01-12T13:43:23.337Z,3
2023-01-12T13:44:23.351Z,4
2023-01-12T13:45:23.396Z,3
2023-01-12T13:46:23.396Z,5
2023-01-12T13:47:23.336Z,2
2023-01-12T13:48:23.321Z,7
2023-01-12T13:49:23.342Z,2
2023-01-12T13:50:23.349Z,3
2023-01-12T13:51:23.326Z,1
2023-01-12T13:52:23.323Z,3
2023-01-12T13:53:23.374Z,3
2023-01-12T13:54:23.349Z,6
2023-01-12T13:55:23.394Z,5
2023-01-12T13:56:23.341Z,1
2023-01-12T13:57:23.330Z,2
2023-01-12T13:58:23.342Z,3
2023-01-12T14:00:23.363Z,2
2023-01-12T14:01:23.469Z,2
2023-01-12T14:02:23.491Z,3
2023-01-12T14:03:23.359Z,3
2023-01-12T14:04:23.337Z,3
2023-01-12T14:05:23.340Z,3
2023-01-12T14:06:23.329Z,5
2023-01-12T14:07:23.337Z,5
2023-01-12T14:08:23.333Z,2
2023-01-12T14:09:23.335Z,2
2023-01-12T14:10:23.351Z,2
2023-01-12T14:11:23.341Z,3
2023-01-12T14:13:23.368Z,3
2023-01-12T14:14:23.335Z,2
2023-01-12T14:15:23.335Z,3
2023-01-12T14:16:23.429Z,2
2023-01-12T14:17:23.322Z,2
2023-01-12T14:18:23.338Z,2
2023-01-12T14:19:23.326Z,2
2023-01-12T14:21:23.344Z,2
2023-01-12T14:22:23.343Z,3
2023-01-12T14:23:23.332Z,2
2023-01-12T14:24:23.363Z,2
2023-01-12T14:25:23.360Z,2
2023-01-12T14:26:23.344Z,2
2023-01-12T14:27:23.353Z,2
2023-01-12T14:29:23.329Z,2
2023-01-12T14:30:23.360Z,3
2023-01-12T14:31:23.402Z,2
2023-01-12T14:32:23.336Z,3
2023-01-12T14:33:23.330Z,2
2023-01-12T14:34:23.328Z,1
2023-01-12T14:35:23.337Z,2
2023-01-12T14:36:23.364Z,2
2023-01-12T14:37:23.353Z,2
2023-01-12T14:38:23.326Z,2
2023-01-12T14:39:23.329Z,6
2023-01-12T14:40:23.355Z,3
2023-01-12T14:42:23.317Z,4
2023-01-12T14:43:23.338Z,4
2023-01-12T14:44:23.331Z,2
2023-01-12T14:45:23.342Z,2
2023-01-12T14:46:23.370Z,2
2023-01-12T14:47:23.333Z,1
2023-01-12T14:48:23.337Z,3
2023-01-12T14:49:23.334Z,1
2023-01-12T14:50:23.347Z,2
2023-01-12T14:51:23.334Z,1
2023-01-12T14:53:23.707Z,2
2023-01-12T14:54:23.339Z,3
2023-01-12T14:55:23.352Z,2
2023-01-12T14:56:23.348Z,4
2023-01-12T14:57:23.335Z,2
2023-01-12T14:58:23.318Z,3
2023-01-12T14:59:23.327Z,3
2023-01-12T15:00:23.332Z,3
2023-01-12T15:01:23.471Z,2
2023-01-12T15:03:28.779Z,2
2023-01-12T15:04:23.334Z,3
2023-01-12T15:05:23.319Z,1
2023-01-12T15:06:23.322Z,3
2023-01-12T15:07:23.331Z,1
2023-01-12T15:08:23.325Z,2
2023-01-12T15:09:23.327Z,2
2023-01-12T15:10:23.327Z,3
2023-01-12T15:11:23.335Z,3
2023-01-12T15:12:23.315Z,3
2023-01-12T15:13:23.323Z,1
2023-01-12T15:14:23.332Z,3
2023-01-12T15:15:23.333Z,4
2023-01-12T15:16:23.409Z,3
2023-01-12T15:17:23.386Z,3
2023-01-12T15:18:23.334Z,3
2023-01-12T15:19:23.325Z,3
2023-01-12T15:20:23.325Z,4
2023-01-12T15:21:23.348Z,3
2023-01-12T15:22:23.328Z,3
2023-01-12T15:23:23.336Z,4
2023-01-12T15:24:23.345Z,4
2023-01-12T15:25:23.331Z,2
2023-01-12T15:26:23.361Z,4
2023-01-12T15:27:23.328Z,4
2023-01-12T15:28:23.393Z,4
2023-01-12T15:29:23.352Z,3
2023-01-12T15:30:23.619Z,4
2023-01-12T15:31:23.580Z,2
2023-01-12T15:32:27.667Z,10
2023-01-12T15:33:23.526Z,3
2023-01-12T15:34:23.429Z,2
2023-01-12T15:35:23.343Z,3
2023-01-12T15:36:23.635Z,7
2023-01-12T15:37:23.544Z,2
2023-01-12T15:39:23.333Z,5
2023-01-12T15:40:23.348Z,3
2023-01-12T15:41:23.734Z,4
2023-01-12T15:42:23.633Z,2